Time;durP1;ratioP1;P1;durP2;ratioP2;P2;SDS_P1;SDS_P2;PMS_P1;PMS_P2;Temp;Humidity;BMP_temperature;BMP_pressure;BME280_temperature;BME280_humidity;BME280_pressure;Samples;Min_cycle;Max_cycle;Signal;HPM_P1;HPM_P2
2022/07/19 00:02:03;;;;;;;4.00;2.00;;;30.80;99.90;;;;;;5051611;28;20043;-58
2022/07/19 00:04:30;;;;;;;2.95;2.00;;;30.90;99.90;;;;;;5017219;28;20081;-57
2022/07/19 00:06:55;;;;;;;4.03;2.22;;;30.90;99.90;;;;;;5018814;28;20021;-56
2022/07/19 00:09:22;;;;;;;13.00;2.83;;;31.00;99.90;;;;;;5036969;28;20120;-52
2022/07/19 00:11:48;;;;;;;5.03;2.70;;;31.00;99.90;;;;;;5044442;28;20090;-52
2022/07/19 00:14:14;;;;;;;5.65;2.35;;;31.00;99.90;;;;;;5049576;28;20416;-52
2022/07/19 00:16:40;;;;;;;3.28;2.42;;;31.10;99.90;;;;;;5049480;28;20354;-53
2022/07/19 00:19:06;;;;;;;6.10;2.63;;;31.10;99.90;;;;;;5049112;28;20047;-53
2022/07/19 00:21:32;;;;;;;4.82;2.53;;;31.20;99.90;;;;;;5048256;28;20059;-52
2022/07/19 00:24:00;;;;;;;2.92;2.20;;;31.10;99.90;;;;;;5048859;28;20076;-52
2022/07/19 00:26:26;;;;;;;7.75;2.58;;;31.10;99.90;;;;;;5048640;28;20047;-52
2022/07/19 00:28:54;;;;;;;3.03;2.00;;;31.20;99.90;;;;;;5049455;28;20017;-52
2022/07/19 00:31:24;;;;;;;4.72;2.72;;;31.20;99.90;;;;;;5049311;28;20024;-52
2022/07/19 00:33:50;;;;;;;3.92;2.78;;;31.20;99.90;;;;;;5048770;28;20138;-52
2022/07/19 00:36:16;;;;;;;6.57;2.05;;;31.20;99.90;;;;;;5049141;28;20029;-52
2022/07/19 00:38:42;;;;;;;4.03;2.72;;;31.20;99.90;;;;;;5049355;28;20021;-51
2022/07/19 00:41:08;;;;;;;3.78;2.50;;;31.20;99.90;;;;;;5050028;28;20029;-52
2022/07/19 00:43:34;;;;;;;4.15;2.30;;;31.20;99.90;;;;;;5049427;28;20123;-52
2022/07/19 00:45:59;;;;;;;3.45;2.40;;;31.20;99.90;;;;;;5050636;28;20032;-52
2022/07/19 00:48:25;;;;;;;3.50;2.22;;;31.20;99.90;;;;;;5051164;28;20124;-52
2022/07/19 00:50:51;;;;;;;3.50;2.40;;;31.20;99.90;;;;;;5050669;28;20025;-52
2022/07/19 00:53:19;;;;;;;2.55;2.20;;;31.20;99.90;;;;;;5050647;28;20033;-52
2022/07/19 00:55:44;;;;;;;;;;;31.20;99.90;;;;;;5051047;28;20059;-52
2022/07/19 00:58:13;;;;;;;5.32;2.47;;;31.20;99.90;;;;;;5050141;28;19904;-52
2022/07/19 01:00:40;;;;;;;4.68;2.40;;;31.20;99.90;;;;;;5062510;22;20048;-60
2022/07/19 01:03:10;;;;;;;7.65;2.38;;;31.10;99.90;;;;;;5050915;28;20501;-59
2022/07/19 01:05:36;;;;;;;2.53;2.30;;;31.10;99.90;;;;;;5050990;28;20037;-60
2022/07/19 01:08:02;;;;;;;2.55;2.20;;;31.10;99.90;;;;;;5050890;28;20079;-60
2022/07/19 01:10:28;;;;;;;3.00;2.33;;;31.20;99.90;;;;;;5041112;28;20018;-60
2022/07/19 01:12:55;;;;;;;3.40;2.08;;;31.20;99.90;;;;;;5031390;28;20026;-60
2022/07/19 01:15:24;;;;;;;2.30;2.05;;;31.20;99.90;;;;;;5031037;28;20033;-59
2022/07/19 01:17:51;;;;;;;2.72;1.73;;;31.20;99.90;;;;;;5033014;28;20051;-60
2022/07/19 01:20:19;;;;;;;2.60;2.10;;;31.10;99.90;;;;;;5049134;28;20025;-60
2022/07/19 01:22:45;;;;;;;3.28;2.42;;;31.10;99.90;;;;;;5050803;28;20021;-59
2022/07/19 01:25:11;;;;;;;2.72;2.05;;;31.10;99.90;;;;;;5050855;28;20041;-60
2022/07/19 01:27:48;;;;;;;3.42;2.25;;;31.10;99.90;;;;;;5050723;28;20400;-60
2022/07/19 01:30:18;;;;;;;2.92;2.38;;;31.10;99.90;;;;;;5043022;28;20022;-60
2022/07/19 01:32:45;;;;;;;3.28;2.58;;;31.10;99.90;;;;;;5041887;28;20384;-60
2022/07/19 01:35:11;;;;;;;3.08;2.40;;;31.10;99.90;;;;;;5050754;28;20013;-60
2022/07/19 01:37:38;;;;;;;3.87;2.50;;;31.10;99.90;;;;;;5050748;28;20036;-59
2022/07/19 01:40:05;;;;;;;3.33;2.43;;;31.10;99.90;;;;;;5045171;28;20095;-60
2022/07/19 01:42:31;;;;;;;;;;;31.10;99.90;;;;;;5031465;28;20113;-61
2022/07/19 01:44:57;;;;;;;2.10;1.90;;;31.10;99.90;;;;;;5030783;28;20004;-59
2022/07/19 01:47:23;;;;;;;2.65;1.83;;;31.10;99.90;;;;;;5034019;28;20021;-59
2022/07/19 01:49:49;;;;;;;3.90;2.80;;;31.10;99.90;;;;;;5047735;28;20021;-59
2022/07/19 01:52:15;;;;;;;2.83;2.38;;;31.10;99.90;;;;;;5034458;28;20025;-61
2022/07/19 01:54:40;;;;;;;2.70;2.40;;;31.10;99.90;;;;;;5034486;28;20032;-61
2022/07/19 01:57:06;;;;;;;3.92;2.45;;;31.10;99.90;;;;;;5034498;28;20488;-61
2022/07/19 01:59:32;;;;;;;3.00;2.40;;;31.10;99.90;;;;;;5036369;28;20032;-60
2022/07/19 02:01:58;;;;;;;3.13;2.13;;;31.10;99.90;;;;;;5054438;28;20029;-59
2022/07/19 02:04:24;;;;;;;2.03;1.80;;;31.10;99.90;;;;;;5036900;28;20125;-60
2022/07/19 02:06:49;;;;;;;2.95;2.65;;;31.10;99.90;;;;;;5032992;28;20109;-60
2022/07/19 02:09:15;;;;;;;3.83;2.80;;;31.10;99.90;;;;;;5032936;28;20381;-59
2022/07/19 02:11:41;;;;;;;3.72;2.78;;;31.10;99.90;;;;;;5035193;28;20493;-59
2022/07/19 02:14:09;;;;;;;2.90;2.40;;;31.10;99.90;;;;;;5034401;28;20129;-60
2022/07/19 02:16:36;;;;;;;3.30;2.65;;;31.10;99.90;;;;;;5034043;28;20056;-59
2022/07/19 02:19:02;;;;;;;;;;;31.10;99.90;;;;;;5034623;28;20469;-60
2022/07/19 02:21:28;;;;;;;3.25;2.55;;;31.10;99.90;;;;;;5035066;28;19909;-60
2022/07/19 02:23:54;;;;;;;4.35;3.10;;;31.10;99.90;;;;;;5033948;28;20048;-60
2022/07/19 02:26:20;;;;;;;3.95;2.47;;;31.10;99.90;;;;;;5033826;28;20022;-60
2022/07/19 02:28:45;;;;;;;3.10;2.58;;;31.10;99.90;;;;;;5034060;28;20033;-60
2022/07/19 02:31:11;;;;;;;2.60;2.40;;;31.10;99.90;;;;;;5048081;28;20029;-59
2022/07/19 02:33:37;;;;;;;2.60;2.28;;;31.10;99.90;;;;;;5036502;28;20033;-60
2022/07/19 02:36:03;;;;;;;2.45;2.25;;;31.10;99.90;;;;;;5033859;28;20030;-60
2022/07/19 02:38:30;;;;;;;2.33;2.13;;;31.10;99.90;;;;;;5033753;28;20052;-59
2022/07/19 02:40:56;;;;;;;3.38;2.58;;;31.10;99.90;;;;;;5044150;28;20108;-59
2022/07/19 02:43:22;;;;;;;2.90;2.40;;;31.10;99.90;;;;;;5053484;28;20044;-59
2022/07/19 02:45:48;;;;;;;2.65;2.10;;;31.00;99.90;;;;;;5035825;28;20033;-63
2022/07/19 02:48:13;;;;;;;3.25;2.10;;;31.00;99.90;;;;;;5044665;28;20036;-59
2022/07/19 02:50:39;;;;;;;6.25;2.50;;;31.00;99.90;;;;;;5053150;28;20029;-60
2022/07/19 02:53:05;;;;;;;2.47;2.10;;;31.00;99.90;;;;;;5048784;28;20021;-59
2022/07/19 02:55:31;;;;;;;4.35;2.67;;;31.00;99.90;;;;;;5038012;28;20386;-60
2022/07/19 02:57:57;;;;;;;2.50;2.30;;;31.00;99.90;;;;;;5033120;28;20381;-61
2022/07/19 03:00:22;;;;;;;2.67;2.38;;;31.00;99.90;;;;;;5053892;22;20059;-51
2022/07/19 03:02:48;;;;;;;3.65;2.33;;;31.00;99.90;;;;;;5053266;28;20485;-49
2022/07/19 03:05:14;;;;;;;3.55;2.38;;;31.00;99.90;;;;;;5051679;28;20116;-49
2022/07/19 03:07:40;;;;;;;1.95;1.75;;;31.00;99.90;;;;;;5053096;28;20373;-49
2022/07/19 03:10:06;;;;;;;2.80;2.50;;;31.00;99.90;;;;;;5052063;28;20064;-49
2022/07/19 03:12:32;;;;;;;3.45;2.53;;;31.00;99.90;;;;;;5053177;28;20099;-49
2022/07/19 03:14:58;;;;;;;2.75;2.55;;;31.00;99.90;;;;;;5052710;28;20128;-51
2022/07/19 03:17:24;;;;;;;2.70;2.38;;;31.00;99.90;;;;;;5051416;28;20029;-48
2022/07/19 03:19:49;;;;;;;2.25;2.05;;;31.00;99.90;;;;;;5052858;28;20069;-50
2022/07/19 03:22:15;;;;;;;3.40;2.38;;;31.00;99.90;;;;;;5052717;28;20021;-50
2022/07/19 03:24:41;;;;;;;5.13;2.90;;;31.00;99.90;;;;;;5052427;28;20037;-50
2022/07/19 03:27:07;;;;;;;3.15;2.90;;;31.00;99.90;;;;;;5052899;28;20111;-51
2022/07/19 03:29:32;;;;;;;2.45;2.17;;;31.00;99.90;;;;;;5052810;28;20472;-50
2022/07/19 03:31:58;;;;;;;3.22;2.40;;;31.00;99.90;;;;;;5052687;28;20523;-51
2022/07/19 03:34:25;;;;;;;7.72;2.72;;;31.00;99.90;;;;;;5052329;28;20020;-50
2022/07/19 03:36:51;;;;;;;3.22;2.40;;;31.00;99.90;;;;;;5052469;28;20510;-50
2022/07/19 03:39:16;;;;;;;2.90;2.25;;;31.00;99.90;;;;;;5052532;28;20032;-51
2022/07/19 03:41:42;;;;;;;5.85;2.72;;;31.00;99.90;;;;;;5052457;28;20290;-51
2022/07/19 03:44:08;;;;;;;3.10;2.55;;;31.00;99.90;;;;;;5052392;28;20041;-50
2022/07/19 03:46:34;;;;;;;2.95;2.25;;;31.00;99.90;;;;;;5052445;28;20025;-50
2022/07/19 03:48:59;;;;;;;4.35;2.20;;;31.00;99.90;;;;;;5050704;28;20104;-50
2022/07/19 03:51:25;;;;;;;2.55;2.13;;;31.00;99.90;;;;;;5052079;28;20040;-50
2022/07/19 03:53:51;;;;;;;2.42;2.05;;;30.90;99.90;;;;;;5051577;28;20060;-51
2022/07/19 03:56:17;;;;;;;2.60;2.35;;;30.90;99.90;;;;;;5052128;28;20025;-50
2022/07/19 03:58:44;;;;;;;3.85;2.08;;;30.90;99.90;;;;;;5051825;28;20025;-50
2022/07/19 04:01:10;;;;;;;2.65;2.10;;;30.90;99.90;;;;;;5050339;22;20053;-59
2022/07/19 04:03:40;;;;;;;2.50;2.15;;;30.90;99.90;;;;;;5030649;28;20044;-59
2022/07/19 04:06:07;;;;;;;2.25;2.03;;;30.90;99.90;;;;;;5032122;28;20080;-59
2022/07/19 04:08:34;;;;;;;5.95;2.28;;;30.90;99.90;;;;;;5031086;28;20029;-58
2022/07/19 04:11:00;;;;;;;6.13;4.40;;;30.90;99.90;;;;;;5030417;28;20021;-59
2022/07/19 04:13:26;;;;;;;2.75;2.20;;;30.90;99.90;;;;;;5031493;28;20033;-59
2022/07/19 04:15:52;;;;;;;2.88;2.38;;;30.90;99.90;;;;;;5031844;28;20018;-58
2022/07/19 04:18:18;;;;;;;4.30;2.50;;;30.90;99.90;;;;;;5031577;28;20033;-58
2022/07/19 04:20:44;;;;;;;2.80;2.53;;;30.90;99.90;;;;;;5031707;28;20026;-58
2022/07/19 04:23:09;;;;;;;4.68;2.90;;;30.80;99.90;;;;;;5031422;28;20473;-58
2022/07/19 04:25:35;;;;;;;2.30;2.10;;;30.80;99.90;;;;;;5031528;28;20037;-58
2022/07/19 04:28:02;;;;;;;3.05;2.50;;;30.80;99.90;;;;;;5031429;28;20033;-58
2022/07/19 04:30:28;;;;;;;3.70;2.08;;;30.80;99.90;;;;;;5014035;28;20489;-59
2022/07/19 04:32:54;;;;;;;3.45;2.20;;;30.80;99.90;;;;;;5031291;28;20022;-59
2022/07/19 04:35:20;;;;;;;2.80;1.90;;;30.70;99.90;;;;;;5031225;28;20385;-59
2022/07/19 04:37:46;;;;;;;3.88;2.38;;;30.70;99.90;;;;;;5031207;28;20116;-59
2022/07/19 04:40:12;;;;;;;2.78;2.22;;;30.70;99.90;;;;;;5031306;28;20446;-59
2022/07/19 04:42:38;;;;;;;3.65;1.90;;;30.70;99.90;;;;;;5031083;28;20025;-59
2022/07/19 04:45:05;;;;;;;3.25;2.17;;;30.70;99.90;;;;;;5030673;28;20389;-59
2022/07/19 04:47:31;;;;;;;2.80;2.40;;;30.70;99.90;;;;;;5031140;28;20351;-60
2022/07/19 04:49:56;;;;;;;3.75;1.88;;;30.70;99.90;;;;;;5030739;28;20029;-59
2022/07/19 04:52:22;;;;;;;2.42;1.95;;;30.60;99.90;;;;;;5031262;28;20026;-60
2022/07/19 04:54:48;;;;;;;6.13;2.38;;;30.60;99.90;;;;;;5031286;28;20497;-60
2022/07/19 04:57:14;;;;;;;2.97;2.38;;;30.60;99.90;;;;;;5031072;28;20022;-60
2022/07/19 04:59:40;;;;;;;4.60;2.30;;;30.60;99.90;;;;;;5030784;28;20035;-60
2022/07/19 05:02:06;;;;;;;3.95;2.58;;;30.60;99.90;;;;;;5030796;28;20021;-60
2022/07/19 05:04:32;;;;;;;4.65;2.60;;;30.50;99.90;;;;;;5030960;28;20048;-60
2022/07/19 05:06:58;;;;;;;5.22;2.35;;;30.50;99.90;;;;;;5030601;28;20473;-57
2022/07/19 05:09:25;;;;;;;8.23;2.58;;;30.50;99.90;;;;;;5031147;28;20057;-57
2022/07/19 05:11:52;;;;;;;5.95;2.55;;;30.50;99.90;;;;;;5030944;28;20485;-59
2022/07/19 05:14:19;;;;;;;2.65;2.38;;;30.50;99.90;;;;;;5030127;28;20474;-60
2022/07/19 05:16:45;;;;;;;2.45;2.25;;;30.50;99.90;;;;;;5029907;28;20044;-58
2022/07/19 05:19:11;;;;;;;2.83;2.15;;;30.50;99.90;;;;;;5029777;28;20516;-58
2022/07/19 05:21:37;;;;;;;6.55;2.80;;;30.50;99.90;;;;;;5035048;28;20021;-59
2022/07/19 05:24:03;;;;;;;6.93;3.00;;;30.50;99.90;;;;;;5035006;28;20037;-58
2022/07/19 05:26:30;;;;;;;5.40;2.30;;;30.40;99.90;;;;;;5034249;28;20028;-58
2022/07/19 05:28:55;;;;;;;3.83;2.92;;;30.40;99.90;;;;;;5034954;28;20446;-58
2022/07/19 05:31:21;;;;;;;8.32;3.00;;;30.40;99.90;;;;;;5035092;28;20051;-58
2022/07/19 05:33:47;;;;;;;6.07;3.17;;;30.40;99.90;;;;;;5034253;28;20492;-58
2022/07/19 05:36:13;;;;;;;7.63;3.35;;;30.30;99.90;;;;;;5034002;28;20018;-58
2022/07/19 05:38:39;;;;;;;6.30;4.35;;;30.30;99.90;;;;;;5033699;28;20078;-59
2022/07/19 05:41:10;;;;;;;6.13;3.50;;;30.20;99.90;;;;;;5033966;28;20390;-59
2022/07/19 05:43:37;;;;;;;5.30;3.10;;;30.20;99.90;;;;;;5034694;28;20443;-60
2022/07/19 05:46:03;;;;;;;6.95;3.88;;;30.20;99.90;;;;;;5032741;28;20099;-60
2022/07/19 05:48:29;;;;;;;10.82;4.28;;;30.20;99.90;;;;;;5034221;28;20029;-59
2022/07/19 05:50:56;;;;;;;12.65;3.15;;;30.20;99.90;;;;;;5034146;28;20091;-61
2022/07/19 05:53:22;;;;;;;10.03;3.40;;;30.20;99.90;;;;;;5034150;28;20029;-59
2022/07/19 05:55:47;;;;;;;8.38;3.53;;;30.20;99.90;;;;;;5034212;28;20075;-58
2022/07/19 05:58:13;;;;;;;7.38;3.30;;;30.10;99.90;;;;;;5034241;28;20068;-58
2022/07/19 06:01:17;;;;;;;9.82;3.83;;;30.20;99.90;;;;;;5034205;28;20041;-58
2022/07/19 06:03:25;;;;;;;7.68;3.13;;;30.10;99.90;;;;;;5029172;28;20064;-58
2022/07/19 06:05:50;;;;;;;5.55;2.88;;;30.10;99.90;;;;;;5034326;28;20025;-58
2022/07/19 06:08:16;;;;;;;5.70;3.35;;;30.10;99.90;;;;;;5034267;28;20034;-58
2022/07/19 06:10:42;;;;;;;5.35;3.05;;;30.00;99.90;;;;;;5034283;28;20029;-58
2022/07/19 06:13:08;;;;;;;5.80;3.05;;;30.00;99.90;;;;;;5032632;28;20386;-59
2022/07/19 06:15:33;;;;;;;7.20;2.65;;;30.00;99.90;;;;;;5033693;28;20444;-60
2022/07/19 06:17:59;;;;;;;3.15;2.75;;;30.10;99.90;;;;;;5033978;28;20112;-59
2022/07/19 06:20:25;;;;;;;4.97;2.83;;;30.10;99.90;;;;;;5034054;28;20036;-58
2022/07/19 06:22:50;;;;;;;5.05;2.67;;;30.00;99.90;;;;;;5033740;28;20037;-59
2022/07/19 06:25:16;;;;;;;5.35;2.75;;;30.00;99.90;;;;;;5033744;28;20211;-57
2022/07/19 06:27:42;;;;;;;5.30;2.90;;;30.00;99.90;;;;;;5033683;28;20026;-60
2022/07/19 06:30:08;;;;;;;3.50;2.50;;;30.00;99.90;;;;;;5033562;28;20029;-59
2022/07/19 06:32:34;;;;;;;6.63;3.08;;;30.00;99.90;;;;;;5032562;28;20480;-59
2022/07/19 06:35:00;;;;;;;4.45;2.78;;;30.00;99.90;;;;;;5032065;28;20029;-59
2022/07/19 06:37:25;;;;;;;6.85;3.05;;;30.00;99.90;;;;;;5033671;28;20033;-59
2022/07/19 06:39:51;;;;;;;8.23;3.47;;;30.00;99.90;;;;;;5033490;28;20028;-59
2022/07/19 06:42:17;;;;;;;6.15;3.15;;;30.00;99.90;;;;;;5033454;28;20032;-60
2022/07/19 06:44:43;;;;;;;3.92;2.55;;;30.00;99.90;;;;;;5033202;28;20145;-60
2022/07/19 06:47:08;;;;;;;7.35;2.97;;;30.00;99.90;;;;;;5033281;28;20026;-59
2022/07/19 06:49:34;;;;;;;8.13;3.65;;;30.00;99.90;;;;;;5033414;28;20048;-59
2022/07/19 06:52:01;;;;;;;6.07;2.75;;;30.00;99.90;;;;;;5032989;28;20032;-59
2022/07/19 06:54:27;;;;;;;6.90;3.08;;;30.00;99.90;;;;;;5032808;28;20021;-59
2022/07/19 06:56:53;;;;;;;3.67;2.85;;;30.00;99.90;;;;;;5032688;28;20037;-58
2022/07/19 06:59:19;;;;;;;4.70;2.92;;;30.00;99.90;;;;;;5032816;28;20038;-59
2022/07/19 07:01:45;;;;;;;4.97;3.05;;;30.00;99.90;;;;;;5032871;28;20420;-58
2022/07/19 07:04:11;;;;;;;3.60;3.10;;;30.00;99.90;;;;;;5033092;28;20420;-58
2022/07/19 07:06:37;;;;;;;6.20;2.42;;;30.00;99.90;;;;;;5033096;28;20104;-59
2022/07/19 07:09:03;;;;;;;7.50;2.70;;;30.00;99.90;;;;;;5032578;28;20040;-59
2022/07/19 07:11:29;;;;;;;10.15;2.72;;;30.00;99.90;;;;;;5033002;28;20480;-59
2022/07/19 07:13:55;;;;;;;7.25;3.22;;;30.00;99.90;;;;;;5032699;28;20112;-59
2022/07/19 07:16:22;;;;;;;5.72;2.72;;;30.00;99.90;;;;;;5033063;28;20021;-59
2022/07/19 07:18:47;;;;;;;5.28;2.50;;;30.10;99.90;;;;;;5032759;28;20108;-59
2022/07/19 07:21:13;;;;;;;3.15;2.20;;;30.10;99.90;;;;;;5031548;28;20543;-59
2022/07/19 07:23:39;;;;;;;4.57;2.97;;;30.10;99.90;;;;;;5032359;28;20029;-58
2022/07/19 07:26:05;;;;;;;8.70;3.28;;;30.10;99.90;;;;;;5031409;28;20616;-58
2022/07/19 07:28:31;;;;;;;5.53;3.40;;;30.10;99.90;;;;;;5032357;28;20468;-58
2022/07/19 07:30:57;;;;;;;3.75;2.45;;;30.10;99.90;;;;;;5032564;28;20038;-58
2022/07/19 07:33:24;;;;;;;6.70;3.28;;;30.00;99.90;;;;;;5032499;28;20473;-58
2022/07/19 07:35:50;;;;;;;9.20;2.65;;;30.00;99.90;;;;;;5031070;28;20075;-58
2022/07/19 07:38:15;;;;;;;6.28;2.85;;;30.10;99.90;;;;;;5030960;28;20029;-58
2022/07/19 07:40:41;;;;;;;6.00;2.90;;;30.00;99.90;;;;;;5032569;28;20025;-58
2022/07/19 07:43:07;;;;;;;6.80;2.75;;;30.00;99.90;;;;;;5031013;28;20053;-58
2022/07/19 07:45:33;;;;;;;10.07;3.10;;;30.00;99.90;;;;;;5032026;28;20048;-58
2022/07/19 07:47:59;;;;;;;3.95;2.83;;;30.00;99.90;;;;;;5032114;28;20033;-59
2022/07/19 07:50:25;;;;;;;5.05;2.97;;;30.10;99.90;;;;;;5032147;28;20052;-59
2022/07/19 07:52:51;;;;;;;6.50;2.60;;;30.10;99.90;;;;;;5031845;28;20018;-59
2022/07/19 07:55:17;;;;;;;6.95;2.83;;;30.10;99.90;;;;;;5031759;28;20112;-59
2022/07/19 07:57:43;;;;;;;4.20;2.83;;;30.10;99.90;;;;;;5032009;28;20052;-59
2022/07/19 08:00:12;;;;;;;9.23;3.88;;;30.10;99.90;;;;;;5031986;28;20048;-59
2022/07/19 08:02:43;;;;;;;5.07;3.17;;;30.10;99.90;;;;;;5031818;28;20420;-59
2022/07/19 08:05:09;;;;;;;5.60;3.58;;;30.10;99.90;;;;;;5032227;28;20026;-59
2022/07/19 08:07:36;;;;;;;6.20;3.35;;;30.10;99.90;;;;;;5031684;28;20025;-59
2022/07/19 08:10:05;;;;;;;7.25;3.25;;;30.10;99.90;;;;;;5031741;28;20034;-59
2022/07/19 08:12:31;;;;;;;7.20;3.45;;;30.10;99.90;;;;;;5031390;28;20030;-59
2022/07/19 08:14:57;;;;;;;5.75;3.05;;;30.10;99.90;;;;;;5031531;28;20557;-59
2022/07/19 08:17:23;;;;;;;4.82;4.40;;;30.10;99.90;;;;;;5031343;28;20029;-59
2022/07/19 08:19:48;;;;;;;7.45;3.03;;;30.10;99.90;;;;;;5026568;28;20024;-59
2022/07/19 08:22:15;;;;;;;5.72;3.05;;;30.20;99.90;;;;;;5033402;28;20024;-59
2022/07/19 08:24:42;;;;;;;3.60;2.53;;;30.20;99.90;;;;;;5029626;28;20088;-59
2022/07/19 08:27:07;;;;;;;5.05;3.67;;;30.20;99.90;;;;;;5030533;28;20052;-59
2022/07/19 08:29:33;;;;;;;3.17;2.67;;;30.20;99.90;;;;;;5031021;28;20060;-59
2022/07/19 08:31:59;;;;;;;3.20;2.88;;;30.20;99.90;;;;;;5030825;28;20057;-59
2022/07/19 08:34:25;;;;;;;2.95;2.55;;;30.20;99.90;;;;;;5027766;28;20036;-59
2022/07/19 08:36:50;;;;;;;5.15;3.30;;;30.20;99.90;;;;;;5028137;28;20016;-60
2022/07/19 08:39:16;;;;;;;3.20;2.70;;;30.20;99.90;;;;;;5030280;28;20033;-60
2022/07/19 08:41:45;;;;;;;7.25;3.10;;;30.20;99.90;;;;;;5030107;28;20074;-59
2022/07/19 08:44:12;;;;;;;7.40;2.95;;;30.20;99.90;;;;;;5031224;28;20046;-64
2022/07/19 08:46:40;;;;;;;5.88;3.15;;;30.30;99.90;;;;;;5030149;28;20056;-62
2022/07/19 08:49:07;;;;;;;6.13;2.88;;;30.30;99.90;;;;;;5028899;28;20040;-61
2022/07/19 08:51:34;;;;;;;5.93;3.00;;;30.30;99.90;;;;;;5029322;28;20156;-58
2022/07/19 08:54:00;;;;;;;52.17;46.80;;;30.30;99.90;;;;;;5030410;28;20029;-59
2022/07/19 08:59:10;;;;;;;10.63;9.43;;;30.30;99.90;;;;;;5031201;28;20082;-59
2022/07/19 09:01:36;;;;;;;10.18;7.20;;;30.30;99.90;;;;;;5030600;28;20128;-59
2022/07/19 09:04:11;;;;;;;8.93;6.43;;;30.30;99.90;;;;;;5030048;28;20544;-59
2022/07/19 09:06:47;;;;;;;9.73;6.10;;;30.30;99.90;;;;;;5047584;28;20356;-55
2022/07/19 09:09:18;;;;;;;5.60;3.20;;;30.30;99.90;;;;;;5049726;28;20061;-53
2022/07/19 09:11:50;;;;;;;5.35;3.38;;;30.40;99.90;;;;;;5050070;28;20021;-55
2022/07/19 09:14:24;;;;;;;5.72;3.38;;;30.40;99.90;;;;;;5050313;28;20027;-55
2022/07/19 09:16:57;;;;;;;8.00;3.33;;;30.40;99.90;;;;;;5050102;28;20033;-55
2022/07/19 09:19:27;;;;;;;5.03;2.75;;;30.30;99.90;;;;;;5050689;28;20432;-55
2022/07/19 09:22:06;;;;;;;6.53;4.00;;;30.30;99.90;;;;;;5050733;28;20025;-55
2022/07/19 09:24:34;;;;;;;4.13;3.70;;;30.30;99.90;;;;;;5049865;28;20103;-56
2022/07/19 09:27:08;;;;;;;6.93;3.10;;;30.30;99.90;;;;;;5046548;28;20025;-56
2022/07/19 09:29:39;;;;;;;9.73;2.90;;;30.30;99.90;;;;;;5048246;28;20502;-56
2022/07/19 09:32:17;;;;;;;4.18;2.97;;;30.30;99.90;;;;;;5034592;28;20136;-55
2022/07/19 09:34:52;;;;;;;4.28;3.00;;;30.20;99.90;;;;;;5049343;28;20473;-55
2022/07/19 09:37:21;;;;;;;4.78;2.63;;;30.20;99.90;;;;;;5050249;28;20036;-55
2022/07/19 09:39:50;;;;;;;7.38;4.38;;;30.20;99.90;;;;;;5032178;28;20029;-54
2022/07/19 09:42:44;;;;;;;3.42;2.97;;;30.30;99.90;;;;;;5032718;28;20444;-54
2022/07/19 09:45:14;;;;;;;5.38;2.63;;;30.30;99.90;;;;;;5050433;28;20392;-51
2022/07/19 09:47:48;;;;;;;5.03;2.90;;;30.20;99.90;;;;;;5050135;28;20029;-59
2022/07/19 09:50:19;;;;;;;10.63;4.03;;;30.20;99.90;;;;;;5049762;28;20025;-58
2022/07/19 09:52:46;;;;;;;8.57;3.10;;;30.20;99.90;;;;;;5050631;28;20029;-59
2022/07/19 09:55:12;;;;;;;3.42;3.10;;;30.20;99.90;;;;;;5049623;28;20083;-58
2022/07/19 09:57:48;;;;;;;5.35;3.20;;;30.30;99.90;;;;;;5032079;28;20065;-58
2022/07/19 10:00:16;;;;;;;6.38;3.20;;;30.30;99.90;;;;;;5049530;28;20374;-56
2022/07/19 10:02:47;;;;;;;5.78;3.10;;;30.30;99.90;;;;;;5049902;28;20427;-59
2022/07/19 10:05:13;;;;;;;7.03;3.42;;;30.30;99.90;;;;;;5032664;28;20094;-57
2022/07/19 10:07:40;;;;;;;8.23;3.85;;;30.30;99.90;;;;;;5052758;28;20026;-56
2022/07/19 10:10:11;;;;;;;5.45;3.20;;;30.30;99.90;;;;;;5053916;28;20036;-56
2022/07/19 10:12:38;;;;;;;3.33;2.88;;;30.30;99.90;;;;;;5053296;28;20036;-56
2022/07/19 10:15:06;;;;;;;6.15;2.78;;;30.30;99.90;;;;;;5053573;28;20429;-56
2022/07/19 10:17:46;;;;;;;3.80;3.33;;;30.30;99.90;;;;;;5053375;28;20437;-56
2022/07/19 10:20:18;;;;;;;6.03;3.05;;;30.40;99.90;;;;;;5053324;28;20032;-55
2022/07/19 10:22:45;;;;;;;5.53;2.88;;;30.40;99.90;;;;;;5053817;28;20037;-56
2022/07/19 10:25:14;;;;;;;5.78;4.00;;;30.30;99.90;;;;;;5053286;28;20041;-56
2022/07/19 10:27:42;;;;;;;5.22;3.17;;;30.40;99.90;;;;;;5051858;28;20013;-56
2022/07/19 10:30:11;;;;;;;4.35;2.97;;;30.30;99.90;;;;;;5053915;28;20032;-56
2022/07/19 10:32:38;;;;;;;4.95;2.95;;;30.30;99.90;;;;;;5053518;28;20112;-56
2022/07/19 10:35:27;;;;;;;4.97;3.10;;;30.40;99.90;;;;;;5053953;28;20028;-57
2022/07/19 10:38:00;;;;;;;6.20;3.78;;;30.40;99.90;;;;;;5053543;28;20025;-56
2022/07/19 10:40:45;;;;;;;5.22;2.72;;;30.40;99.90;;;;;;5035551;28;20473;-57
2022/07/19 10:43:13;;;;;;;5.70;2.70;;;30.40;99.90;;;;;;5053480;28;20115;-58
2022/07/19 10:46:00;;;;;;;3.22;2.92;;;30.50;99.90;;;;;;5035054;28;20044;-57
2022/07/19 10:48:40;;;;;;;4.85;2.80;;;30.50;99.90;;;;;;5052366;28;20484;-57
2022/07/19 10:51:11;;;;;;;3.72;2.92;;;30.40;99.90;;;;;;5053410;28;20035;-57
2022/07/19 10:53:42;;;;;;;3.17;2.58;;;30.50;99.90;;;;;;5052654;28;20029;-57
2022/07/19 10:56:18;;;;;;;4.20;2.75;;;30.50;99.90;;;;;;5052527;28;20036;-56
2022/07/19 10:59:05;;;;;;;5.32;2.70;;;30.50;99.90;;;;;;5052658;28;20028;-60
2022/07/19 11:01:33;;;;;;;2.88;2.60;;;30.50;99.90;;;;;;5051600;28;20481;-58
2022/07/19 11:04:28;;;;;;;4.93;3.70;;;30.60;99.90;;;;;;5034012;28;20083;-59
2022/07/19 11:07:18;;;;;;;5.57;3.85;;;30.60;99.90;;;;;;5034447;28;20499;-57
2022/07/19 11:09:53;;;;;;;5.03;4.53;;;30.60;99.90;;;;;;5051609;28;20033;-54
2022/07/19 11:12:39;;;;;;;8.38;7.55;;;30.60;99.90;;;;;;5052860;28;20107;-55
2022/07/19 11:15:08;;;;;;;13.75;5.47;;;30.60;99.90;;;;;;5052100;28;20374;-58
2022/07/19 11:17:34;;;;;;;7.13;5.13;;;30.60;99.90;;;;;;5048940;28;20017;-57
2022/07/19 11:20:07;;;;;;;5.95;5.22;;;30.60;99.90;;;;;;5052728;28;20384;-60
2022/07/19 11:22:35;;;;;;;8.07;4.65;;;30.60;99.90;;;;;;5052567;28;20108;-58
2022/07/19 11:25:02;;;;;;;6.32;4.28;;;30.60;99.90;;;;;;5052577;28;20036;-57
2022/07/19 11:27:29;;;;;;;;;;;30.50;99.90;;;;;;5053094;28;20025;-56
2022/07/19 11:29:55;;;;;;;6.60;5.63;;;30.60;99.90;;;;;;5052763;28;19911;-58
2022/07/19 11:32:21;;;;;;;10.95;5.45;;;30.60;99.90;;;;;;5052519;28;20083;-56
2022/07/19 11:34:59;;;;;;;5.80;3.92;;;30.60;99.90;;;;;;5052356;28;20037;-55
2022/07/19 11:37:30;;;;;;;8.20;4.80;;;30.60;99.90;;;;;;5052443;28;20032;-60
2022/07/19 11:39:57;;;;;;;15.27;12.25;;;30.60;99.90;;;;;;5051318;28;20025;-60
2022/07/19 11:42:34;;;;;;;12.98;9.30;;;30.60;99.90;;;;;;5052222;28;20032;-65
2022/07/19 11:45:18;;;;;;;6.53;5.65;;;30.60;99.90;;;;;;5052036;28;20511;-60
2022/07/19 11:47:49;;;;;;;10.13;7.50;;;30.50;99.90;;;;;;5047862;28;20033;-50
2022/07/19 11:50:19;;;;;;;11.15;6.00;;;30.50;99.90;;;;;;5050317;28;20473;-52
2022/07/19 11:52:54;;;;;;;13.27;8.23;;;30.50;99.90;;;;;;5051705;28;20577;-54
2022/07/19 11:55:23;;;;;;;6.78;4.85;;;30.60;99.90;;;;;;5050589;28;20017;-55
2022/07/19 11:57:50;;;;;;;7.10;4.57;;;30.60;99.90;;;;;;5051045;28;20025;-53
2022/07/19 12:00:17;;;;;;;15.05;6.55;;;30.60;99.90;;;;;;5051058;28;20041;-54
2022/07/19 12:03:14;;;;;;;5.57;3.60;;;30.60;99.90;;;;;;5051270;28;20063;-55
2022/07/19 12:05:40;;;;;;;5.40;3.25;;;30.60;99.90;;;;;;5049919;28;20067;-50
2022/07/19 12:08:08;;;;;;;5.50;2.65;;;30.60;99.90;;;;;;5047854;28;20047;-54
2022/07/19 12:10:36;;;;;;;5.13;2.60;;;30.60;99.90;;;;;;5050259;28;20029;-58
2022/07/19 12:13:04;;;;;;;5.53;3.15;;;30.60;99.90;;;;;;5050492;28;20029;-55
2022/07/19 12:15:49;;;;;;;;;;;30.60;99.90;;;;;;5051503;28;20381;-55
2022/07/19 12:18:17;;;;;;;7.70;3.38;;;30.60;99.90;;;;;;5029590;28;19909;-59
2022/07/19 12:20:44;;;;;;;6.65;3.15;;;30.70;99.90;;;;;;5050292;28;20027;-53
2022/07/19 12:23:18;;;;;;;15.65;11.05;;;30.70;99.90;;;;;;5051015;28;20021;-54
2022/07/19 12:25:45;;;;;;;11.35;8.23;;;30.70;99.90;;;;;;5050497;28;20041;-53
2022/07/19 12:28:11;;;;;;;6.75;4.25;;;30.80;99.90;;;;;;5051170;28;20036;-59
2022/07/19 12:30:37;;;;;;;14.48;4.45;;;30.80;99.90;;;;;;5050380;28;20033;-51
2022/07/19 12:33:11;;;;;;;3.85;2.80;;;30.80;99.90;;;;;;5050511;28;20028;-58
2022/07/19 12:35:47;;;;;;;5.43;3.25;;;30.80;99.90;;;;;;5050393;28;20068;-55
2022/07/19 12:38:14;;;;;;;21.58;6.32;;;30.80;99.90;;;;;;5051096;28;20039;-48
2022/07/19 12:40:44;;;;;;;45.60;11.88;;;30.80;99.90;;;;;;5050794;28;20358;-55
2022/07/19 12:43:13;;;;;;;13.98;4.78;;;30.90;99.90;;;;;;5051185;28;20105;-51
2022/07/19 12:45:46;;;;;;;15.32;6.80;;;30.90;99.90;;;;;;5050808;28;20037;-58
2022/07/19 12:48:14;;;;;;;14.85;6.57;;;30.80;99.90;;;;;;5014470;28;20029;-60
2022/07/19 12:50:51;;;;;;;7.28;4.07;;;30.90;99.90;;;;;;5051111;28;20082;-56
2022/07/19 12:53:17;;;;;;;11.38;4.50;;;30.90;99.90;;;;;;5050486;28;20025;-53
2022/07/19 12:55:43;;;;;;;5.88;3.03;;;30.90;99.90;;;;;;5050633;28;20025;-53